LGAL/AXD METAR and TAF weather

Enter ICAO airport designator
Station Type Date Time Source
LGAL METAR 2022/10/01 08:20 UTC NOAA

LGAL 010820Z 22005KT 9999 FEW015 25/21 Q1020


Station Type Date Time Source
LGAL Decoded METAR 2022/10/01 08:20 UTC NOAA

Alexandroupoli Airport , Greece (LGAL) 40-51N 025-55E 3M
Oct 01, 2022 - 04:20 AM EDT / 2022.10.01 0820 UTC
Wind: from the SW (220 degrees) at 6 MPH (5 KT):0
Visibility: greater than 7 mile(s):0
Sky conditions: mostly clear
Temperature: 77 F (25 C)
Dew Point: 69 F (21 C)
Relative Humidity: 78%
Pressure (altimeter): 30.12 in. Hg (1020 hPa)
ob: LGAL 010820Z 22005KT 9999 FEW015 25/21 Q1020
cycle: 8

Station Type Date Time Source
LGAL TAF 2012/09/21 03:06 UTC NOAA

TAF TAF LGAL 210200Z 2103/2115 03012G22KT 9999 FEW020 SCT070 PROB30
TEMPO 2103/2106 6000 RA SCT015 BKN030 PROB30

Example: see airport list